Time;durP1;ratioP1;P1;durP2;ratioP2;P2;SDS_P1;SDS_P2;PMS_P1;PMS_P2;Temp;Humidity;BMP_temperature;BMP_pressure;BME280_temperature;BME280_humidity;BME280_pressure;Samples;Min_cycle;Max_cycle;Signal;HPM_P1;HPM_P2
2021/10/11 00:01:47;;;;;;;71.68;42.33;;;9.80;91.30;;;;;;5072655;28;20095;-38
2021/10/11 00:04:12;;;;;;;80.25;45.90;;;9.80;91.30;;;;;;5072288;28;20020;-38
2021/10/11 00:06:38;;;;;;;88.78;50.75;;;9.90;91.40;;;;;;5072810;28;20097;-38
2021/10/11 00:09:04;;;;;;;86.60;48.53;;;10.00;90.90;;;;;;5072526;28;20025;-38
2021/10/11 00:11:30;;;;;;;85.85;48.80;;;10.10;90.60;;;;;;5072285;28;20024;-38
2021/10/11 00:13:55;;;;;;;91.13;47.13;;;10.10;90.40;;;;;;5054371;28;20372;-37
2021/10/11 00:16:21;;;;;;;76.72;46.78;;;9.90;90.50;;;;;;5072237;28;20027;-38
2021/10/11 00:18:47;;;;;;;86.63;48.70;;;10.00;91.10;;;;;;5072572;28;20101;-38
2021/10/11 00:21:13;;;;;;;80.78;47.60;;;10.00;90.80;;;;;;5072220;28;20021;-38
2021/10/11 00:23:39;;;;;;;84.18;49.42;;;10.20;90.90;;;;;;5072231;28;20065;-38
2021/10/11 00:26:05;;;;;;;83.18;45.03;;;10.20;90.50;;;;;;5072154;28;20024;-38
2021/10/11 00:28:31;;;;;;;78.50;42.78;;;10.00;90.60;;;;;;5074050;28;20067;-38
2021/10/11 00:30:56;;;;;;;81.72;47.47;;;10.00;90.90;;;;;;5075904;28;20086;-37
2021/10/11 00:33:22;;;;;;;77.95;44.35;;;10.10;91.10;;;;;;5075795;28;20070;-38
2021/10/11 00:35:48;;;;;;;78.78;45.00;;;10.10;91.10;;;;;;5075822;28;20021;-37
2021/10/11 00:38:13;;;;;;;86.22;46.80;;;10.10;91.20;;;;;;5075808;28;20021;-38
2021/10/11 00:40:39;;;;;;;82.32;47.10;;;10.10;91.30;;;;;;5075779;28;20039;-38
2021/10/11 00:43:04;;;;;;;88.05;46.85;;;10.30;90.60;;;;;;5076120;28;20033;-37
2021/10/11 00:45:30;;;;;;;91.45;52.25;;;10.30;90.10;;;;;;5075668;28;20028;-38
2021/10/11 00:47:56;;;;;;;92.03;52.65;;;10.40;90.10;;;;;;5075557;28;20028;-38
2021/10/11 00:50:21;;;;;;;94.78;53.03;;;10.30;89.70;;;;;;5058628;28;20024;-37
2021/10/11 00:52:48;;;;;;;101.18;54.88;;;10.40;89.90;;;;;;5075417;28;20484;-37
2021/10/11 00:55:14;;;;;;;91.90;50.72;;;10.40;89.70;;;;;;5075392;28;20020;-37
2021/10/11 00:57:40;;;;;;;93.22;52.03;;;10.50;89.50;;;;;;5075696;28;20028;-37
2021/10/11 01:00:07;;;;;;;95.97;54.30;;;10.60;89.90;;;;;;5075145;28;20191;-37
2021/10/11 01:02:33;;;;;;;100.97;56.58;;;10.60;89.30;;;;;;5075145;28;20499;-37
2021/10/11 01:04:59;;;;;;;92.28;50.63;;;10.70;89.10;;;;;;5074847;28;20045;-38
2021/10/11 01:07:25;;;;;;;99.70;53.17;;;10.60;89.30;;;;;;5075011;28;20029;-37
2021/10/11 01:09:51;;;;;;;98.47;52.78;;;10.70;89.40;;;;;;5074980;28;20079;-39
2021/10/11 01:12:17;;;;;;;97.32;54.67;;;10.60;89.40;;;;;;5075122;28;20464;-36
2021/10/11 01:14:42;;;;;;;100.10;52.85;;;10.70;89.50;;;;;;5074883;28;20020;-37
2021/10/11 01:17:09;;;;;;;97.57;55.58;;;10.70;89.50;;;;;;5074997;28;20074;-38
2021/10/11 01:19:37;;;;;;;97.68;53.50;;;10.80;89.60;;;;;;5075248;28;20445;-36
2021/10/11 01:22:04;;;;;;;106.82;54.72;;;10.80;89.10;;;;;;5074967;28;20078;-38
2021/10/11 01:24:29;;;;;;;104.00;56.13;;;10.80;89.30;;;;;;5074889;28;20064;-38
2021/10/11 01:26:55;;;;;;;96.63;54.28;;;10.80;89.10;;;;;;5074864;28;20028;-38
2021/10/11 01:29:21;;;;;;;100.15;53.00;;;10.70;89.60;;;;;;5075028;28;20060;-38
2021/10/11 01:31:48;;;;;;;110.07;56.80;;;10.80;89.40;;;;;;5074795;28;20070;-37
2021/10/11 01:34:14;;;;;;;97.55;54.60;;;10.80;89.70;;;;;;5074807;28;20029;-37
2021/10/11 01:36:39;;;;;;;100.15;52.70;;;10.80;89.70;;;;;;5074695;28;20077;-37
2021/10/11 01:39:07;;;;;;;118.22;59.50;;;10.80;89.80;;;;;;5074400;28;20099;-37
2021/10/11 01:41:33;;;;;;;106.80;58.72;;;10.90;89.90;;;;;;5074486;28;20094;-37
2021/10/11 01:43:59;;;;;;;108.60;57.55;;;10.90;90.20;;;;;;5074885;28;20060;-37
2021/10/11 01:46:25;;;;;;;116.05;62.67;;;10.90;90.50;;;;;;5074493;28;20028;-36
2021/10/11 01:48:50;;;;;;;126.70;61.85;;;11.00;90.90;;;;;;5074695;28;20125;-38
2021/10/11 01:51:16;;;;;;;130.20;64.28;;;11.00;91.20;;;;;;5074370;28;20163;-37
2021/10/11 01:53:42;;;;;;;143.35;69.93;;;11.10;91.70;;;;;;5074328;28;20064;-37
2021/10/11 01:56:07;;;;;;;149.75;67.88;;;11.10;92.00;;;;;;5056311;28;20044;-37
2021/10/11 01:58:33;;;;;;;155.38;70.75;;;11.30;92.20;;;;;;5074284;28;20074;-37
2021/10/11 02:00:59;;;;;;;150.68;69.47;;;11.30;92.20;;;;;;5056631;28;20115;-37
2021/10/11 02:03:25;;;;;;;157.95;68.90;;;11.20;92.30;;;;;;5074357;28;20033;-37
2021/10/11 02:05:51;;;;;;;154.35;73.28;;;11.30;92.60;;;;;;5074011;28;20049;-37
2021/10/11 02:08:16;;;;;;;163.02;74.82;;;11.30;92.90;;;;;;5074410;28;20055;-37
2021/10/11 02:10:42;;;;;;;164.55;73.05;;;11.30;92.90;;;;;;5074423;28;20074;-37
2021/10/11 02:13:07;;;;;;;160.38;71.82;;;11.30;92.90;;;;;;5074021;28;20029;-37
2021/10/11 02:15:33;;;;;;;163.52;73.20;;;11.30;93.10;;;;;;5073967;28;20473;-37
2021/10/11 02:17:59;;;;;;;154.70;69.07;;;11.40;93.10;;;;;;5073993;28;20023;-37
2021/10/11 02:20:25;;;;;;;159.23;68.60;;;11.40;92.90;;;;;;5073916;28;20027;-38
2021/10/11 02:22:51;;;;;;;141.75;64.93;;;11.40;93.00;;;;;;5073870;28;20075;-37
2021/10/11 02:25:17;;;;;;;133.60;62.25;;;11.30;93.10;;;;;;5073812;28;20032;-37
2021/10/11 02:27:42;;;;;;;121.22;60.63;;;11.50;93.30;;;;;;5055805;28;20028;-37
2021/10/11 02:30:10;;;;;;;125.63;60.28;;;11.40;93.20;;;;;;5074015;28;20020;-38
2021/10/11 02:32:37;;;;;;;129.90;60.65;;;11.50;93.40;;;;;;5073546;28;20056;-38
2021/10/11 02:35:04;;;;;;;127.05;60.15;;;11.60;93.20;;;;;;5073877;28;20510;-37
2021/10/11 02:37:30;;;;;;;131.15;56.88;;;11.50;93.10;;;;;;5073840;28;20021;-37
2021/10/11 02:39:55;;;;;;;131.15;59.15;;;11.50;92.90;;;;;;5055803;28;20361;-37
2021/10/11 02:42:22;;;;;;;123.57;56.58;;;11.50;93.00;;;;;;5073984;28;20036;-38
2021/10/11 02:44:48;;;;;;;119.70;53.35;;;11.40;93.20;;;;;;5073388;28;20082;-37
2021/10/11 02:47:14;;;;;;;111.65;55.60;;;11.50;93.40;;;;;;5073627;28;20530;-38
2021/10/11 02:49:40;;;;;;;123.90;55.90;;;11.50;93.30;;;;;;5073281;28;20024;-38
2021/10/11 02:52:06;;;;;;;130.13;59.75;;;11.60;93.10;;;;;;5073308;28;20034;-38
2021/10/11 02:54:32;;;;;;;118.35;53.22;;;11.50;93.10;;;;;;5073515;28;20161;-37
2021/10/11 02:56:57;;;;;;;114.10;52.78;;;11.50;93.30;;;;;;5074206;28;20030;-37
2021/10/11 02:59:23;;;;;;;119.00;57.03;;;11.50;93.40;;;;;;5073193;28;20086;-37
2021/10/11 03:01:49;;;;;;;114.97;53.03;;;11.60;93.20;;;;;;5073172;28;20020;-37
2021/10/11 03:04:14;;;;;;;114.60;52.55;;;11.50;93.20;;;;;;5072855;28;20035;-38
2021/10/11 03:06:40;;;;;;;99.53;50.08;;;11.50;93.40;;;;;;5073064;28;20461;-37
2021/10/11 03:09:06;;;;;;;107.22;49.10;;;11.50;93.40;;;;;;5055083;28;20048;-37
2021/10/11 03:11:32;;;;;;;102.43;49.33;;;11.60;93.40;;;;;;5073037;28;20013;-37
2021/10/11 03:13:58;;;;;;;98.00;46.20;;;11.50;93.40;;;;;;5072912;28;20036;-37
2021/10/11 03:16:24;;;;;;;87.13;43.13;;;11.50;93.70;;;;;;5072966;28;20399;-37
2021/10/11 03:18:50;;;;;;;101.22;48.40;;;11.60;93.70;;;;;;5072792;28;20016;-37
2021/10/11 03:21:21;;;;;;;87.65;44.95;;;11.60;93.60;;;;;;5072824;28;20492;-37
2021/10/11 03:23:49;;;;;;;83.38;43.85;;;11.60;93.60;;;;;;5073113;28;20492;-37
2021/10/11 03:26:14;;;;;;;86.40;43.50;;;11.70;93.50;;;;;;5072791;28;20031;-37
2021/10/11 03:28:40;;;;;;;90.32;46.45;;;11.80;93.30;;;;;;5072826;28;20025;-36
2021/10/11 03:31:06;;;;;;;92.47;43.25;;;11.80;92.70;;;;;;5073017;28;20040;-37
2021/10/11 03:33:32;;;;;;;85.15;41.40;;;11.80;92.70;;;;;;5072605;28;20028;-37
2021/10/11 03:35:57;;;;;;;93.43;42.45;;;11.70;92.80;;;;;;5073226;28;20095;-37
2021/10/11 03:38:23;;;;;;;86.82;40.70;;;11.80;93.00;;;;;;5073387;28;20403;-37
2021/10/11 03:40:49;;;;;;;92.40;43.20;;;11.80;92.70;;;;;;5054489;28;20073;-37
2021/10/11 03:43:14;;;;;;;77.55;40.92;;;11.80;93.00;;;;;;5072544;28;20066;-37
2021/10/11 03:45:40;;;;;;;88.07;42.08;;;11.80;92.70;;;;;;5072614;28;20384;-38
2021/10/11 03:48:06;;;;;;;91.13;42.72;;;11.80;92.60;;;;;;5072903;28;20518;-37
2021/10/11 03:50:32;;;;;;;102.40;44.40;;;11.80;92.60;;;;;;5072526;28;20150;-37
2021/10/11 03:52:58;;;;;;;92.70;41.67;;;11.80;92.80;;;;;;5072469;28;20111;-37
2021/10/11 03:55:23;;;;;;;87.60;44.28;;;11.80;92.80;;;;;;5072388;28;20025;-37
2021/10/11 03:57:49;;;;;;;92.15;42.25;;;11.80;92.90;;;;;;5072313;28;20426;-37
2021/10/11 04:00:15;;;;;;;94.10;42.47;;;11.70;92.60;;;;;;5072161;28;20021;-37
2021/10/11 04:02:41;;;;;;;93.40;41.38;;;11.80;93.00;;;;;;5073004;28;20514;-38
2021/10/11 04:05:07;;;;;;;95.13;42.10;;;11.80;92.80;;;;;;5076418;28;20052;-36
2021/10/11 04:07:34;;;;;;;110.38;46.17;;;11.80;93.00;;;;;;5076353;28;20024;-36
2021/10/11 04:10:03;;;;;;;106.93;46.55;;;11.80;92.80;;;;;;5076403;28;20024;-37
2021/10/11 04:12:36;;;;;;;91.07;42.58;;;11.80;92.80;;;;;;5076320;28;20082;-37
2021/10/11 04:15:07;;;;;;;98.35;44.15;;;11.80;93.00;;;;;;5076124;28;20054;-37
2021/10/11 04:17:38;;;;;;;90.60;40.40;;;11.80;93.20;;;;;;5075667;28;20035;-36
2021/10/11 04:20:06;;;;;;;95.93;41.03;;;11.70;93.30;;;;;;5076003;28;20029;-37
2021/10/11 04:22:32;;;;;;;88.13;40.50;;;11.70;93.10;;;;;;5076364;28;20056;-37
2021/10/11 04:24:58;;;;;;;88.47;40.42;;;11.70;93.30;;;;;;5075877;28;20056;-37
2021/10/11 04:27:23;;;;;;;90.07;40.25;;;11.80;93.00;;;;;;5075786;28;20388;-37
2021/10/11 04:29:49;;;;;;;80.88;37.38;;;11.80;93.00;;;;;;5075875;28;20059;-36
2021/10/11 04:32:14;;;;;;;75.22;36.47;;;11.70;93.20;;;;;;5076383;28;20028;-37
2021/10/11 04:34:40;;;;;;;73.53;34.70;;;11.80;93.20;;;;;;5077433;28;20054;-37
2021/10/11 04:37:06;;;;;;;73.85;34.75;;;11.80;93.00;;;;;;5075615;28;20020;-36
2021/10/11 04:39:31;;;;;;;68.03;34.20;;;11.80;93.10;;;;;;5076321;28;20032;-37
2021/10/11 04:41:57;;;;;;;66.68;33.35;;;11.80;93.10;;;;;;5075616;28;20036;-37
2021/10/11 04:44:22;;;;;;;61.28;33.17;;;11.80;93.20;;;;;;5075927;28;20115;-37
2021/10/11 04:46:48;;;;;;;62.50;31.75;;;11.80;93.10;;;;;;5075592;28;20361;-37
2021/10/11 04:49:14;;;;;;;59.28;28.10;;;11.90;92.90;;;;;;5075614;28;20036;-37
2021/10/11 04:51:40;;;;;;;52.47;25.90;;;11.80;92.70;;;;;;5075481;28;20469;-37
2021/10/11 04:54:06;;;;;;;57.08;27.23;;;11.80;92.90;;;;;;5057537;28;20024;-36
2021/10/11 04:56:31;;;;;;;55.13;26.58;;;11.80;92.70;;;;;;5075450;28;20026;-37
2021/10/11 04:58:57;;;;;;;59.40;26.17;;;11.80;92.70;;;;;;5075290;28;20020;-37
2021/10/11 05:01:22;;;;;;;51.15;25.95;;;11.80;92.90;;;;;;5075566;28;20021;-37
2021/10/11 05:03:48;;;;;;;54.28;25.98;;;11.80;93.00;;;;;;5075320;28;20362;-37
2021/10/11 05:06:14;;;;;;;52.13;26.83;;;11.80;93.10;;;;;;5075080;28;20053;-37
2021/10/11 05:08:39;;;;;;;49.42;27.92;;;11.80;92.80;;;;;;5075289;28;20020;-37
2021/10/11 05:11:05;;;;;;;57.50;26.67;;;11.80;92.80;;;;;;5075191;28;20128;-37
2021/10/11 05:13:31;;;;;;;43.55;22.48;;;11.80;93.00;;;;;;5057099;28;20021;-37
2021/10/11 05:15:57;;;;;;;54.33;23.55;;;11.80;93.10;;;;;;5073875;28;20024;-37
2021/10/11 05:18:23;;;;;;;55.63;22.95;;;11.80;92.70;;;;;;5056992;28;20039;-37
2021/10/11 05:20:50;;;;;;;50.72;22.27;;;11.80;92.80;;;;;;5075034;28;20029;-37
2021/10/11 05:23:18;;;;;;;40.13;20.67;;;11.80;92.70;;;;;;5075285;28;20037;-37
2021/10/11 05:25:47;;;;;;;48.35;22.58;;;11.80;92.50;;;;;;5075523;28;20137;-38
2021/10/11 05:28:12;;;;;;;38.80;19.77;;;11.80;92.80;;;;;;5075298;28;20035;-37
2021/10/11 05:30:40;;;;;;;43.15;21.23;;;11.80;92.70;;;;;;5075300;28;20020;-37
2021/10/11 05:33:07;;;;;;;39.97;19.42;;;11.80;92.70;;;;;;5075008;28;20082;-38
2021/10/11 05:35:32;;;;;;;47.22;21.60;;;11.80;92.80;;;;;;5075107;28;20017;-37
2021/10/11 05:37:58;;;;;;;42.72;19.38;;;11.80;92.50;;;;;;5074648;28;20061;-37
2021/10/11 05:40:23;;;;;;;40.80;18.27;;;11.80;92.60;;;;;;5074678;28;20471;-37
2021/10/11 05:42:49;;;;;;;39.40;17.02;;;11.80;93.00;;;;;;5056601;28;20021;-38
2021/10/11 05:45:15;;;;;;;31.58;16.50;;;11.70;92.90;;;;;;5074715;28;20525;-37
2021/10/11 05:47:40;;;;;;;41.92;18.65;;;11.70;93.10;;;;;;5074519;28;20032;-38
2021/10/11 05:50:07;;;;;;;35.17;16.42;;;11.70;93.10;;;;;;5074743;28;20039;-38
2021/10/11 05:52:33;;;;;;;32.05;15.88;;;11.80;93.00;;;;;;5074322;28;20025;-37
2021/10/11 05:54:59;;;;;;;39.63;17.02;;;11.80;92.70;;;;;;5056341;28;20024;-38
2021/10/11 05:57:24;;;;;;;32.40;13.40;;;11.80;92.50;;;;;;5074176;28;20441;-38
2021/10/11 05:59:50;;;;;;;31.15;13.77;;;11.80;92.60;;;;;;5074235;28;20070;-38
2021/10/11 06:02:16;;;;;;;31.42;13.98;;;11.70;92.60;;;;;;5074634;28;20035;-38
2021/10/11 06:04:41;;;;;;;32.40;13.48;;;11.70;92.70;;;;;;5073777;28;20485;-38
2021/10/11 06:07:07;;;;;;;33.17;13.80;;;11.60;92.80;;;;;;5073924;28;20036;-38
2021/10/11 06:09:33;;;;;;;34.20;14.40;;;11.60;92.80;;;;;;5074025;28;20123;-38
2021/10/11 06:11:58;;;;;;;26.27;11.23;;;11.60;92.90;;;;;;5074252;28;20082;-38
2021/10/11 06:14:24;;;;;;;28.08;12.20;;;11.50;93.00;;;;;;5074031;28;20029;-38
2021/10/11 06:16:49;;;;;;;32.75;13.07;;;11.50;93.00;;;;;;5074318;28;20440;-38
2021/10/11 06:19:15;;;;;;;26.60;11.18;;;11.50;93.10;;;;;;5074195;28;20025;-38
2021/10/11 06:21:40;;;;;;;25.25;10.93;;;11.50;93.10;;;;;;5055829;28;20016;-38
2021/10/11 06:24:06;;;;;;;23.95;11.95;;;11.60;93.00;;;;;;5073463;28;20507;-37
2021/10/11 06:26:32;;;;;;;24.77;11.40;;;11.60;92.90;;;;;;5073080;28;20051;-37
2021/10/11 06:28:57;;;;;;;29.02;10.77;;;11.50;92.90;;;;;;5073386;28;20020;-38
2021/10/11 06:31:23;;;;;;;21.75;10.40;;;11.50;93.00;;;;;;5073380;28;20147;-38
2021/10/11 06:33:49;;;;;;;27.30;9.70;;;11.60;92.90;;;;;;5073148;28;20028;-38
2021/10/11 06:36:14;;;;;;;23.25;8.82;;;11.60;92.70;;;;;;5055368;28;20044;-37
2021/10/11 06:38:40;;;;;;;22.70;9.23;;;11.70;92.60;;;;;;5073358;28;20070;-38
2021/10/11 06:41:06;;;;;;;18.60;8.35;;;11.50;92.50;;;;;;5073419;28;20028;-38
2021/10/11 06:43:31;;;;;;;13.60;7.65;;;11.70;92.80;;;;;;5072875;28;20020;-37
2021/10/11 06:45:57;;;;;;;25.15;8.23;;;11.70;92.30;;;;;;5073075;28;20025;-37
2021/10/11 06:48:23;;;;;;;14.20;7.00;;;11.80;92.10;;;;;;5072809;28;20036;-37
2021/10/11 06:50:48;;;;;;;16.25;7.15;;;11.80;92.00;;;;;;5073361;28;20029;-38
2021/10/11 06:53:14;;;;;;;28.40;8.65;;;11.80;92.10;;;;;;5073259;28;20036;-37
2021/10/11 06:55:43;;;;;;;16.13;7.45;;;11.80;91.90;;;;;;5073421;28;20024;-38
2021/10/11 06:58:09;;;;;;;20.85;7.28;;;11.80;91.70;;;;;;5073686;28;20045;-38
2021/10/11 07:00:36;;;;;;;20.70;7.25;;;11.80;91.60;;;;;;5072534;28;20033;-38
2021/10/11 07:03:04;;;;;;;18.85;8.77;;;11.80;91.60;;;;;;5072899;28;20028;-38
2021/10/11 07:05:31;;;;;;;18.42;7.20;;;11.70;91.60;;;;;;5072366;28;20052;-36
2021/10/11 07:07:58;;;;;;;15.57;6.93;;;11.80;91.60;;;;;;5072540;28;20029;-38
2021/10/11 07:10:24;;;;;;;21.42;6.47;;;11.80;91.50;;;;;;5072940;28;20029;-38
2021/10/11 07:12:50;;;;;;;15.95;6.45;;;11.80;91.60;;;;;;5072650;28;20491;-39
2021/10/11 07:15:16;;;;;;;20.85;6.70;;;11.80;91.20;;;;;;5072357;28;20036;-37
2021/10/11 07:17:41;;;;;;;13.00;5.88;;;11.80;91.20;;;;;;5072419;28;20017;-37
2021/10/11 07:20:07;;;;;;;21.30;6.03;;;11.80;91.20;;;;;;5072279;28;20024;-37
2021/10/11 07:22:33;;;;;;;14.63;5.65;;;11.80;91.30;;;;;;5072809;28;20112;-38
2021/10/11 07:24:59;;;;;;;19.67;6.28;;;11.90;90.50;;;;;;5072682;28;20052;-39
2021/10/11 07:27:24;;;;;;;15.98;6.28;;;11.90;90.50;;;;;;5072428;28;20103;-37
2021/10/11 07:29:50;;;;;;;20.65;5.07;;;12.00;90.30;;;;;;5072488;28;20028;-39
2021/10/11 07:32:15;;;;;;;13.85;5.65;;;12.00;90.00;;;;;;5072439;28;20058;-37
2021/10/11 07:34:41;;;;;;;18.42;5.03;;;12.10;90.00;;;;;;5072627;28;20025;-38
2021/10/11 07:37:07;;;;;;;11.70;4.88;;;12.00;89.70;;;;;;5054772;28;20032;-38
2021/10/11 07:39:33;;;;;;;13.15;4.88;;;12.10;89.80;;;;;;5054373;28;20017;-39
2021/10/11 07:42:00;;;;;;;13.45;4.80;;;12.10;89.10;;;;;;5072373;28;20017;-39
2021/10/11 07:44:26;;;;;;;27.63;7.15;;;12.20;89.20;;;;;;5072536;28;20020;-38
2021/10/11 07:46:54;;;;;;;18.90;5.57;;;12.30;88.80;;;;;;5072190;28;20039;-38
2021/10/11 07:49:20;;;;;;;10.98;4.20;;;12.30;88.70;;;;;;5072593;28;20013;-37
2021/10/11 07:51:46;;;;;;;17.45;4.78;;;12.40;88.30;;;;;;5072534;28;20028;-37
2021/10/11 07:54:12;;;;;;;18.08;4.40;;;12.30;88.00;;;;;;5072693;28;20025;-38
2021/10/11 07:56:37;;;;;;;12.05;4.57;;;12.30;88.40;;;;;;5054082;28;20031;-37
2021/10/11 07:59:04;;;;;;;15.55;5.20;;;12.30;88.50;;;;;;5053914;28;20111;-40
2021/10/11 08:01:29;;;;;;;19.70;6.38;;;12.30;88.40;;;;;;5072062;28;20072;-37
2021/10/11 08:03:55;;;;;;;13.63;4.43;;;12.30;88.20;;;;;;5071732;28;20333;-38
2021/10/11 08:06:21;;;;;;;14.52;4.60;;;12.40;87.80;;;;;;5071214;28;20044;-38
2021/10/11 08:08:46;;;;;;;19.20;8.30;;;12.40;87.80;;;;;;5071832;28;20425;-38
2021/10/11 08:11:12;;;;;;;17.67;8.88;;;12.30;87.90;;;;;;5072004;28;20029;-38
2021/10/11 08:13:38;;;;;;;13.88;5.15;;;12.40;87.70;;;;;;5071447;28;20469;-38
2021/10/11 08:16:04;;;;;;;19.58;8.57;;;12.40;87.70;;;;;;5053066;28;20376;-38
2021/10/11 08:18:30;;;;;;;14.45;7.47;;;12.40;87.50;;;;;;5071868;28;20062;-38
2021/10/11 08:20:55;;;;;;;22.13;5.18;;;12.40;87.20;;;;;;5071963;28;20018;-38
2021/10/11 08:23:21;;;;;;;18.70;4.97;;;12.50;87.30;;;;;;5072006;28;20334;-38
2021/10/11 08:25:47;;;;;;;10.48;4.45;;;12.50;86.70;;;;;;5071818;28;20094;-37
2021/10/11 08:28:12;;;;;;;17.58;5.70;;;12.60;86.30;;;;;;5071659;28;20048;-37
2021/10/11 08:30:39;;;;;;;16.45;4.10;;;12.60;86.60;;;;;;5071646;28;20060;-37
2021/10/11 08:33:04;;;;;;;15.00;4.40;;;12.60;86.20;;;;;;5071733;28;20025;-39
2021/10/11 08:35:30;;;;;;;9.75;3.72;;;12.70;85.50;;;;;;5071674;28;20333;-37
2021/10/11 08:37:56;;;;;;;13.73;4.72;;;12.80;85.50;;;;;;5071514;28;20056;-38
2021/10/11 08:40:22;;;;;;;10.60;4.57;;;12.80;85.20;;;;;;5071764;28;20142;-38
2021/10/11 08:42:49;;;;;;;16.13;4.28;;;12.80;85.70;;;;;;5054259;28;20029;-38
2021/10/11 08:45:15;;;;;;;12.73;4.43;;;13.00;84.90;;;;;;5054193;28;20029;-37
2021/10/11 08:47:41;;;;;;;19.70;9.57;;;13.10;84.50;;;;;;5054163;28;20368;-38
2021/10/11 08:50:11;;;;;;;17.33;5.68;;;13.00;84.70;;;;;;5074516;28;20047;-38
2021/10/11 08:52:37;;;;;;;10.80;3.92;;;12.80;85.80;;;;;;5057939;28;20119;-38
2021/10/11 08:55:03;;;;;;;10.07;4.13;;;12.60;86.90;;;;;;5075189;28;20495;-39
2021/10/11 08:57:32;;;;;;;16.13;4.30;;;12.50;87.20;;;;;;5075590;28;20468;-38
2021/10/11 09:00:19;;;;;;;9.60;3.97;;;12.40;87.80;;;;;;5074962;28;20024;-38
2021/10/11 09:02:58;;;;;;;18.83;4.90;;;12.40;87.30;;;;;;5075115;28;20032;-38
2021/10/11 09:05:32;;;;;;;10.35;3.70;;;12.60;87.10;;;;;;5056628;28;20454;-52
2021/10/11 09:08:12;;;;;;;8.30;3.40;;;12.50;86.60;;;;;;5075213;28;20063;-51
2021/10/11 09:10:55;;;;;;;14.68;3.63;;;12.60;86.00;;;;;;5075069;28;20461;-49
2021/10/11 09:13:27;;;;;;;15.55;5.32;;;12.70;86.30;;;;;;5074841;28;20089;-48
2021/10/11 09:16:16;;;;;;;21.83;9.15;;;12.70;85.80;;;;;;5075422;28;20025;-49
2021/10/11 09:18:48;;;;;;;18.33;3.50;;;12.60;86.40;;;;;;5075166;28;20033;-48
2021/10/11 09:21:13;;;;;;;7.75;2.70;;;12.60;85.80;;;;;;5075419;28;20469;-48
2021/10/11 09:23:41;;;;;;;11.90;4.25;;;12.70;85.30;;;;;;5075361;28;20020;-50
2021/10/11 09:26:21;;;;;;;27.45;15.13;;;12.90;85.30;;;;;;5040028;28;20113;-49
2021/10/11 09:28:53;;;;;;;11.38;2.88;;;13.00;84.90;;;;;;5074970;28;20176;-49
2021/10/11 09:31:19;;;;;;;7.40;2.10;;;13.40;83.50;;;;;;5074256;28;20071;-49
2021/10/11 09:33:45;;;;;;;9.05;2.72;;;13.50;82.90;;;;;;5074688;28;20052;-50
2021/10/11 09:36:20;;;;;;;7.80;2.83;;;13.30;82.70;;;;;;5056761;28;20529;-47
2021/10/11 09:38:56;;;;;;;10.25;2.88;;;13.20;82.40;;;;;;5074616;28;20025;-48
2021/10/11 09:41:21;;;;;;;7.95;2.90;;;13.10;83.80;;;;;;5056362;28;20016;-52
2021/10/11 09:43:49;;;;;;;4.43;2.17;;;13.30;83.50;;;;;;5074348;28;20043;-53
2021/10/11 09:46:15;;;;;;;7.25;2.97;;;13.30;83.00;;;;;;5074300;28;20459;-48
2021/10/11 09:48:59;;;;;;;7.80;2.78;;;13.40;82.40;;;;;;5055836;28;20025;-48
2021/10/11 09:51:25;;;;;;;7.35;2.55;;;13.50;82.40;;;;;;5074805;28;20024;-49
2021/10/11 09:53:53;;;;;;;15.13;2.97;;;13.60;82.20;;;;;;5073989;28;20028;-48
2021/10/11 09:56:25;;;;;;;11.82;3.58;;;13.70;81.90;;;;;;5039191;28;20020;-51
2021/10/11 09:58:51;;;;;;;9.18;3.80;;;13.90;80.30;;;;;;5073486;28;20052;-51
2021/10/11 10:01:17;;;;;;;9.60;2.47;;;13.80;79.10;;;;;;5073374;28;20070;-48
2021/10/11 10:03:42;;;;;;;16.20;3.78;;;13.70;80.20;;;;;;5074045;28;20025;-51
2021/10/11 10:06:09;;;;;;;12.40;4.50;;;14.20;77.90;;;;;;5039136;28;20065;-49
2021/10/11 10:08:38;;;;;;;9.95;3.33;;;15.00;76.20;;;;;;5054335;28;20445;-52
2021/10/11 10:11:06;;;;;;;9.10;2.83;;;15.50;72.50;;;;;;5054354;28;20029;-49
2021/10/11 10:13:36;;;;;;;5.38;2.22;;;15.20;74.10;;;;;;5035818;28;20021;-50
2021/10/11 10:16:10;;;;;;;9.52;3.85;;;15.30;73.40;;;;;;5054010;28;20078;-51
2021/10/11 10:18:38;;;;;;;13.98;3.30;;;15.70;72.90;;;;;;5053000;28;20493;-51
2021/10/11 10:21:04;;;;;;;9.57;2.10;;;16.80;68.80;;;;;;5053086;28;20032;-48
2021/10/11 10:23:32;;;;;;;18.17;4.13;;;16.70;68.70;;;;;;5035380;28;20064;-49
2021/10/11 10:26:01;;;;;;;9.73;2.40;;;16.40;69.60;;;;;;5053263;28;20067;-49
2021/10/11 10:28:47;;;;;;;8.52;1.95;;;17.10;68.10;;;;;;5053654;28;20128;-49
2021/10/11 10:31:27;;;;;;;10.80;2.65;;;17.50;66.70;;;;;;5035549;28;20036;-49
2021/10/11 10:33:53;;;;;;;8.35;2.05;;;17.50;65.20;;;;;;5053239;28;20051;-49
2021/10/11 10:36:19;;;;;;;9.90;2.72;;;17.50;64.50;;;;;;5018754;28;20025;-51
2021/10/11 10:38:56;;;;;;;10.02;2.38;;;17.70;64.30;;;;;;5053560;28;20021;-51
2021/10/11 10:41:22;;;;;;;9.60;3.17;;;17.40;65.40;;;;;;5053395;28;20029;-50
2021/10/11 10:43:48;;;;;;;10.70;2.55;;;17.40;66.10;;;;;;5034992;28;20025;-48
2021/10/11 10:46:13;;;;;;;14.55;2.15;;;16.90;66.70;;;;;;5053741;28;20108;-50
2021/10/11 10:48:53;;;;;;;14.95;2.95;;;17.20;66.30;;;;;;5053226;28;20139;-48
2021/10/11 10:51:20;;;;;;;16.67;3.28;;;17.10;64.90;;;;;;5053296;28;20067;-50
2021/10/11 10:53:57;;;;;;;14.18;3.08;;;17.20;65.70;;;;;;5053395;28;20055;-53
2021/10/11 10:56:24;;;;;;;17.63;3.63;;;18.10;64.50;;;;;;5034986;28;20074;-53
2021/10/11 10:59:03;;;;;;;10.82;3.03;;;18.60;61.70;;;;;;5053142;28;20448;-50
2021/10/11 11:01:30;;;;;;;11.15;3.15;;;18.40;61.80;;;;;;5057063;28;20349;-52
2021/10/11 11:03:56;;;;;;;18.65;2.70;;;18.50;61.70;;;;;;5053152;28;20350;-52
2021/10/11 11:06:32;;;;;;;13.95;3.03;;;19.00;59.40;;;;;;5071029;28;20071;-52
2021/10/11 11:08:59;;;;;;;11.02;3.05;;;19.10;58.30;;;;;;5072145;28;20032;-53
2021/10/11 11:11:29;;;;;;;7.80;2.13;;;18.50;57.80;;;;;;5072455;28;20025;-51
2021/10/11 11:13:56;;;;;;;10.30;2.22;;;18.00;59.40;;;;;;5071207;28;20029;-49
2021/10/11 11:16:30;;;;;;;11.93;2.75;;;17.60;62.80;;;;;;5054326;28;20121;-49
2021/10/11 11:18:58;;;;;;;7.18;2.45;;;18.50;60.50;;;;;;5072756;28;20451;-53
2021/10/11 11:21:25;;;;;;;13.73;3.28;;;19.00;58.90;;;;;;5072586;28;20021;-47
2021/10/11 11:23:51;;;;;;;12.00;2.50;;;19.40;56.70;;;;;;5072941;28;20056;-51
2021/10/11 11:26:17;;;;;;;9.77;2.88;;;19.50;55.70;;;;;;5072764;28;20131;-49
2021/10/11 11:28:44;;;;;;;9.48;2.20;;;18.40;57.90;;;;;;5054275;28;20442;-49
2021/10/11 11:31:16;;;;;;;15.00;5.03;;;17.80;60.10;;;;;;5072417;28;20472;-50
2021/10/11 11:33:47;;;;;;;15.52;2.25;;;17.50;60.00;;;;;;5072621;28;20033;-49
2021/10/11 11:36:13;;;;;;;11.90;3.20;;;18.10;59.20;;;;;;5055874;28;20469;-50
2021/10/11 11:38:40;;;;;;;15.82;3.70;;;17.60;60.70;;;;;;5072303;28;20094;-49
2021/10/11 11:41:06;;;;;;;16.52;2.60;;;17.30;61.40;;;;;;5072693;28;20380;-50
2021/10/11 11:43:42;;;;;;;10.32;2.20;;;16.70;62.20;;;;;;5072413;28;20047;-53
2021/10/11 11:46:12;;;;;;;11.00;2.22;;;16.20;63.60;;;;;;5054309;28;20029;-48
2021/10/11 11:48:43;;;;;;;8.95;1.80;;;16.00;63.00;;;;;;5054214;28;20032;-49
2021/10/11 11:51:12;;;;;;;14.80;2.53;;;16.10;62.40;;;;;;5072468;28;20352;-48
2021/10/11 11:53:39;;;;;;;6.00;1.85;;;16.10;62.10;;;;;;5071919;28;20025;-50
2021/10/11 11:56:08;;;;;;;8.73;2.38;;;16.00;62.70;;;;;;5072026;28;20044;-53
2021/10/11 11:58:36;;;;;;;12.38;2.78;;;16.10;63.10;;;;;;5055674;28;20028;-51
2021/10/11 12:01:20;;;;;;;11.68;3.25;;;16.50;62.40;;;;;;5072082;28;20025;-52
2021/10/11 12:04:12;;;;;;;12.50;3.40;;;17.30;61.20;;;;;;5055742;28;20043;-48
2021/10/11 12:06:38;;;;;;;7.15;1.85;;;16.80;61.80;;;;;;5051553;28;20047;-48
2021/10/11 12:09:05;;;;;;;8.00;2.50;;;17.00;61.10;;;;;;5072346;28;20064;-50
2021/10/11 12:11:31;;;;;;;10.25;1.55;;;16.80;60.80;;;;;;5054275;28;20031;-47
2021/10/11 12:14:01;;;;;;;10.75;1.50;;;16.90;61.30;;;;;;5054208;28;20024;-50
2021/10/11 12:16:28;;;;;;;4.57;1.77;;;16.90;59.30;;;;;;5071874;28;20052;-50
2021/10/11 12:18:56;;;;;;;7.90;1.63;;;17.00;59.60;;;;;;5071885;28;20266;-48
2021/10/11 12:21:29;;;;;;;11.23;1.77;;;16.70;59.90;;;;;;5071687;28;20056;-48
2021/10/11 12:23:58;;;;;;;7.18;1.63;;;16.70;61.10;;;;;;5072645;28;20035;-50
2021/10/11 12:26:25;;;;;;;3.63;1.13;;;16.80;58.60;;;;;;5075374;28;20457;-51
2021/10/11 12:29:10;;;;;;;4.93;1.23;;;16.60;57.50;;;;;;5075485;28;20024;-50
2021/10/11 12:31:39;;;;;;;4.97;1.70;;;16.80;55.40;;;;;;5075229;28;20473;-48